Terminal Aerodrome Forecast
Issued by NWS

Home | Current Version | Previous Version | Text Only | Print | Product List | Glossary On
Versions: 1 2 3 4 5 6 7 8 9 10 11 12 13 14 15 16 17 18 19 20 21 22 23 24
000
FTUS41 KGYX 250307 AAB
TAFMHT
TAF AMD
KMHT 250307Z 2503/2524 05004KT P6SM BKN008 OVC015
     FM251300 VRB03KT P6SM SCT025 SCT060
     FM251700 30010G15KT P6SM SCT060=

USA.gov is the U.S. government's official web portal to all federal, state and local government web resources and services.